Time;durP1;ratioP1;P1;durP2;ratioP2;P2;SDS_P1;SDS_P2;PMS_P1;PMS_P2;Temp;Humidity;BMP_temperature;BMP_pressure;BME280_temperature;BME280_humidity;BME280_pressure;Samples;Min_cycle;Max_cycle;Signal;HPM_P1;HPM_P2
2021/12/02 00:00:57;;;;;;;1.63;0.98;;;7.00;84.20;;;;;;5008610;28;20042;-71
2021/12/02 00:03:24;;;;;;;1.50;0.40;;;7.00;84.10;;;;;;5010905;28;20059;-72
2021/12/02 00:06:00;;;;;;;1.60;0.47;;;7.00;84.00;;;;;;5015072;28;20050;-71
2021/12/02 00:08:33;;;;;;;2.70;0.40;;;7.00;84.00;;;;;;5010944;28;20054;-71
2021/12/02 00:11:00;;;;;;;0.55;0.22;;;7.00;83.60;;;;;;5007253;28;20058;-73
2021/12/02 00:13:43;;;;;;;2.17;0.35;;;7.00;83.40;;;;;;5010815;28;20054;-70
2021/12/02 00:16:18;;;;;;;4.72;0.43;;;7.00;83.30;;;;;;5012465;28;20041;-71
2021/12/02 00:21:41;;;;;;;2.13;0.60;;;7.00;83.50;;;;;;5054555;28;20182;-70
2021/12/02 00:24:10;;;;;;;2.55;0.70;;;6.90;83.60;;;;;;5016904;28;20049;-70
2021/12/02 00:26:39;;;;;;;2.15;1.00;;;7.00;83.60;;;;;;5015332;28;20058;-70
2021/12/02 00:29:09;;;;;;;1.52;1.20;;;7.00;83.60;;;;;;5012903;28;20048;-70
2021/12/02 00:31:38;;;;;;;2.38;0.57;;;7.00;83.80;;;;;;5011754;28;20038;-70
2021/12/02 00:34:08;;;;;;;1.70;0.40;;;6.90;83.90;;;;;;5012228;28;20371;-70
2021/12/02 00:36:40;;;;;;;1.08;0.22;;;6.90;84.00;;;;;;5010260;28;20501;-70
2021/12/02 00:39:09;;;;;;;1.15;0.40;;;6.90;84.00;;;;;;5014178;28;20558;-70
2021/12/02 00:41:36;;;;;;;0.90;0.38;;;6.90;84.10;;;;;;5009549;28;20057;-70
2021/12/02 00:44:10;;;;;;;4.10;0.65;;;6.90;84.20;;;;;;5012594;28;20054;-70
2021/12/02 00:46:37;;;;;;;2.58;0.73;;;6.80;84.40;;;;;;5013595;28;20510;-71
2021/12/02 00:49:11;;;;;;;1.63;0.52;;;6.80;84.70;;;;;;5012173;28;20136;-70
2021/12/02 00:51:40;;;;;;;3.00;0.77;;;6.80;84.70;;;;;;5014500;28;20499;-72
2021/12/02 00:54:09;;;;;;;4.72;1.40;;;6.70;85.00;;;;;;5013923;28;20054;-71
2021/12/02 00:56:36;;;;;;;2.72;0.65;;;6.70;85.20;;;;;;5013725;28;20050;-70
2021/12/02 00:59:05;;;;;;;1.88;0.93;;;6.70;85.40;;;;;;5009202;28;20046;-71
2021/12/02 01:01:36;;;;;;;2.97;1.02;;;6.70;85.30;;;;;;5000595;28;20059;-70
2021/12/02 01:04:08;;;;;;;2.70;1.15;;;6.70;85.50;;;;;;5013020;28;20407;-71
2021/12/02 01:06:36;;;;;;;1.77;0.90;;;6.70;85.60;;;;;;4991899;28;20421;-70
2021/12/02 01:09:04;;;;;;;2.10;0.77;;;6.70;85.60;;;;;;5014377;28;20049;-70
2021/12/02 01:11:31;;;;;;;2.10;0.77;;;6.80;85.50;;;;;;5031751;28;20048;-71
2021/12/02 01:13:59;;;;;;;2.30;0.90;;;6.80;85.40;;;;;;5020694;28;20041;-71
2021/12/02 01:16:26;;;;;;;3.75;0.80;;;6.70;85.50;;;;;;5012943;28;20046;-71
2021/12/02 01:18:53;;;;;;;2.20;1.02;;;6.80;85.50;;;;;;5011362;28;20042;-70
2021/12/02 01:21:22;;;;;;;2.17;1.13;;;6.80;85.40;;;;;;5011738;28;20046;-72
2021/12/02 01:23:51;;;;;;;2.65;1.08;;;6.70;85.50;;;;;;5013021;28;20037;-71
2021/12/02 01:26:20;;;;;;;2.08;0.82;;;6.80;85.50;;;;;;5001075;28;20057;-71
2021/12/02 01:28:50;;;;;;;5.32;1.55;;;6.80;85.40;;;;;;4993902;28;20372;-71
2021/12/02 01:31:17;;;;;;;5.50;1.17;;;6.80;85.50;;;;;;5006920;28;20467;-70
2021/12/02 01:33:46;;;;;;;4.18;1.52;;;6.80;85.40;;;;;;5008685;28;20045;-72
2021/12/02 01:36:14;;;;;;;4.55;1.30;;;6.90;85.30;;;;;;5006410;28;20062;-71
2021/12/02 01:38:42;;;;;;;2.10;1.15;;;6.80;85.30;;;;;;5013812;28;20055;-72
2021/12/02 01:41:09;;;;;;;2.25;1.08;;;6.80;85.30;;;;;;5011474;28;20084;-72
2021/12/02 01:43:48;;;;;;;2.80;1.00;;;6.80;85.30;;;;;;5013166;28;20418;-70
2021/12/02 01:46:17;;;;;;;2.63;0.95;;;6.80;85.30;;;;;;5002159;28;20132;-71
2021/12/02 01:48:49;;;;;;;1.77;0.85;;;6.80;85.30;;;;;;5008385;28;20053;-71
2021/12/02 01:51:19;;;;;;;2.72;1.05;;;6.80;85.20;;;;;;5011143;28;20050;-71
2021/12/02 01:53:50;;;;;;;4.35;1.45;;;6.80;85.30;;;;;;5010854;28;20056;-70
2021/12/02 01:56:19;;;;;;;3.25;1.50;;;6.80;85.20;;;;;;5006921;28;20486;-71
2021/12/02 01:58:49;;;;;;;2.00;1.30;;;6.80;85.30;;;;;;4999124;28;20132;-71
2021/12/02 02:01:21;;;;;;;2.22;1.33;;;6.80;85.30;;;;;;5010554;28;20482;-71
2021/12/02 02:03:50;;;;;;;2.78;1.15;;;6.80;85.30;;;;;;5004807;28;20420;-72
2021/12/02 02:06:25;;;;;;;2.97;1.65;;;6.80;85.30;;;;;;5005369;28;20057;-71
2021/12/02 02:08:55;;;;;;;3.28;1.20;;;6.80;85.30;;;;;;5008019;28;20046;-71
2021/12/02 02:11:21;;;;;;;2.13;1.00;;;6.70;85.30;;;;;;5005818;28;20056;-70
2021/12/02 02:13:50;;;;;;;4.10;1.20;;;6.80;85.40;;;;;;5002196;28;20129;-70
2021/12/02 02:16:17;;;;;;;2.78;1.33;;;6.70;85.40;;;;;;5005657;28;20121;-70
2021/12/02 02:18:44;;;;;;;1.98;1.00;;;6.70;85.30;;;;;;5038300;28;20046;-71
2021/12/02 02:21:15;;;;;;;3.17;1.00;;;6.70;85.30;;;;;;5003330;28;20050;-70
2021/12/02 02:23:46;;;;;;;2.03;1.17;;;6.70;85.40;;;;;;5002352;28;20045;-71
2021/12/02 02:26:14;;;;;;;3.40;1.52;;;6.80;85.30;;;;;;5004445;28;20066;-71
2021/12/02 02:28:42;;;;;;;5.55;1.38;;;6.70;85.30;;;;;;5008869;28;20491;-70
2021/12/02 02:31:09;;;;;;;3.15;1.17;;;6.70;85.30;;;;;;5007814;28;20045;-71
2021/12/02 02:33:37;;;;;;;3.15;1.35;;;6.70;85.30;;;;;;5009795;28;20152;-71
2021/12/02 02:36:07;;;;;;;1.02;0.65;;;6.70;85.40;;;;;;5006786;28;20461;-71
2021/12/02 02:38:36;;;;;;;4.20;1.42;;;6.70;85.40;;;;;;5005630;28;20050;-71
2021/12/02 02:41:05;;;;;;;2.33;1.15;;;6.70;85.30;;;;;;5009030;28;20056;-72
2021/12/02 02:43:34;;;;;;;1.85;0.80;;;6.60;85.40;;;;;;5010324;28;20050;-71
2021/12/02 02:46:01;;;;;;;2.20;0.98;;;6.60;85.50;;;;;;5009606;28;20519;-71
2021/12/02 02:48:30;;;;;;;2.67;1.15;;;6.60;85.40;;;;;;5009894;28;20095;-71
2021/12/02 02:50:58;;;;;;;1.90;0.88;;;6.60;85.30;;;;;;5012587;28;20091;-69
2021/12/02 02:53:26;;;;;;;2.88;1.00;;;6.60;85.30;;;;;;5008652;28;20046;-71
2021/12/02 02:56:05;;;;;;;2.15;0.90;;;6.60;85.20;;;;;;5009111;28;20053;-72
2021/12/02 02:58:44;;;;;;;2.42;1.10;;;6.60;85.20;;;;;;5011032;28;20121;-72
2021/12/02 03:01:25;;;;;;;2.05;0.77;;;6.60;85.30;;;;;;5010019;28;20133;-70
2021/12/02 03:04:01;;;;;;;2.08;0.88;;;6.50;85.30;;;;;;5007282;28;20042;-71
2021/12/02 03:06:35;;;;;;;1.80;1.17;;;6.50;85.10;;;;;;5010531;28;20091;-72
2021/12/02 03:09:05;;;;;;;3.03;0.98;;;6.50;85.10;;;;;;5012945;28;20053;-71
2021/12/02 03:11:43;;;;;;;4.18;1.38;;;6.60;85.00;;;;;;5012145;28;20497;-71
2021/12/02 03:14:14;;;;;;;2.55;1.10;;;6.60;84.90;;;;;;5011733;28;20042;-70
2021/12/02 03:16:47;;;;;;;2.30;1.00;;;6.60;85.00;;;;;;5007245;28;20053;-72
2021/12/02 03:19:15;;;;;;;3.33;0.85;;;6.60;85.00;;;;;;5012150;28;20072;-73
2021/12/02 03:21:42;;;;;;;2.28;1.25;;;6.60;85.10;;;;;;5008281;28;20052;-72
2021/12/02 03:24:09;;;;;;;2.85;1.23;;;6.60;85.00;;;;;;5013692;28;20038;-72
2021/12/02 03:26:37;;;;;;;1.58;0.88;;;6.60;85.00;;;;;;5016259;28;20142;-70
2021/12/02 03:29:05;;;;;;;4.00;1.23;;;6.60;85.00;;;;;;5009388;28;20058;-71
2021/12/02 03:31:33;;;;;;;3.65;1.55;;;6.60;85.20;;;;;;5010375;28;20049;-71
2021/12/02 03:34:00;;;;;;;2.05;1.05;;;6.60;85.20;;;;;;5040100;28;20044;-70
2021/12/02 03:36:35;;;;;;;3.03;1.58;;;6.60;85.30;;;;;;5002023;28;20050;-71
2021/12/02 03:39:06;;;;;;;2.38;1.20;;;6.60;85.40;;;;;;5008298;28;20079;-72
2021/12/02 03:41:34;;;;;;;2.67;1.48;;;6.60;85.30;;;;;;5009059;28;20050;-71
2021/12/02 03:44:03;;;;;;;5.35;1.35;;;6.60;85.30;;;;;;5010513;28;20052;-72
2021/12/02 03:46:30;;;;;;;3.20;1.65;;;6.60;85.40;;;;;;5013190;28;20148;-71
2021/12/02 03:48:57;;;;;;;2.55;1.20;;;6.60;85.40;;;;;;5008429;28;20410;-72
2021/12/02 03:51:25;;;;;;;1.88;1.13;;;6.60;85.40;;;;;;5008833;28;20481;-71
2021/12/02 03:53:53;;;;;;;2.63;1.20;;;6.60;85.40;;;;;;5008376;28;20061;-71
2021/12/02 03:56:21;;;;;;;2.25;1.27;;;6.60;85.20;;;;;;4995919;28;20076;-71
2021/12/02 03:58:49;;;;;;;2.88;1.30;;;6.60;85.10;;;;;;5000874;28;20057;-71
2021/12/02 04:01:19;;;;;;;3.25;1.17;;;6.60;85.00;;;;;;5013243;28;20050;-71
2021/12/02 04:03:46;;;;;;;2.90;1.23;;;6.60;85.10;;;;;;5007061;28;20053;-70
2021/12/02 04:06:14;;;;;;;1.60;0.73;;;6.60;85.20;;;;;;5011479;28;20037;-71
2021/12/02 04:08:45;;;;;;;6.03;1.17;;;6.60;85.20;;;;;;5008879;28;20053;-70
2021/12/02 04:11:19;;;;;;;3.10;1.25;;;6.60;85.20;;;;;;5013008;28;20058;-71
2021/12/02 04:13:53;;;;;;;2.75;1.30;;;6.60;85.20;;;;;;5041236;28;20071;-71
2021/12/02 04:16:23;;;;;;;3.15;1.20;;;6.60;85.10;;;;;;5001115;28;20218;-72
2021/12/02 04:18:50;;;;;;;3.35;1.15;;;6.60;85.10;;;;;;5014423;28;20045;-71
2021/12/02 04:21:17;;;;;;;4.93;1.33;;;6.50;85.10;;;;;;5013254;28;20081;-72
2021/12/02 04:23:44;;;;;;;3.03;1.33;;;6.50;85.00;;;;;;5012856;28;19927;-72
2021/12/02 04:26:11;;;;;;;2.47;1.02;;;6.50;85.00;;;;;;5014649;28;20042;-69
2021/12/02 04:28:38;;;;;;;4.22;1.30;;;6.50;85.00;;;;;;5011985;28;20050;-71
2021/12/02 04:31:05;;;;;;;2.88;1.05;;;6.50;85.00;;;;;;4997286;28;20133;-71
2021/12/02 04:33:33;;;;;;;2.30;1.20;;;6.50;85.00;;;;;;5014749;28;20395;-70
2021/12/02 04:36:01;;;;;;;2.53;1.20;;;6.50;85.00;;;;;;5012912;28;20037;-72
2021/12/02 04:38:29;;;;;;;5.30;0.95;;;6.50;85.10;;;;;;4996118;28;20371;-71
2021/12/02 04:40:57;;;;;;;4.13;1.35;;;6.40;85.20;;;;;;5011591;28;20068;-73
2021/12/02 04:43:24;;;;;;;3.70;1.13;;;6.40;85.30;;;;;;4990957;28;20138;-72
2021/12/02 04:45:52;;;;;;;2.22;1.13;;;6.40;85.30;;;;;;5009477;28;20038;-71
2021/12/02 04:48:19;;;;;;;4.82;1.30;;;6.40;85.40;;;;;;5012874;28;20056;-71
2021/12/02 04:50:49;;;;;;;4.03;1.30;;;6.40;85.50;;;;;;5009979;28;20041;-71
2021/12/02 04:53:16;;;;;;;1.98;1.00;;;6.40;85.40;;;;;;5014267;28;20056;-72
2021/12/02 04:55:44;;;;;;;2.38;1.15;;;6.40;85.10;;;;;;5016736;28;20049;-71
2021/12/02 04:58:11;;;;;;;6.07;1.45;;;6.40;85.10;;;;;;5014161;28;20042;-70
2021/12/02 05:00:38;;;;;;;2.50;0.90;;;6.40;84.90;;;;;;5004844;28;20046;-71
2021/12/02 05:03:05;;;;;;;1.55;0.70;;;6.40;84.70;;;;;;5014659;28;20060;-72
2021/12/02 05:05:33;;;;;;;3.20;0.70;;;6.40;84.60;;;;;;5015734;28;20464;-72
2021/12/02 05:08:03;;;;;;;3.67;0.85;;;6.40;84.60;;;;;;5014688;28;20414;-70
2021/12/02 05:10:31;;;;;;;1.27;0.65;;;6.30;84.50;;;;;;5015916;28;20147;-71
2021/12/02 05:12:59;;;;;;;4.00;1.33;;;6.30;84.50;;;;;;5012445;28;20050;-72
2021/12/02 05:15:26;;;;;;;1.67;0.98;;;6.30;84.50;;;;;;5014270;28;20056;-70
2021/12/02 05:17:54;;;;;;;5.10;1.88;;;6.30;84.40;;;;;;4996483;28;20137;-71
2021/12/02 05:20:21;;;;;;;2.90;1.20;;;6.30;84.40;;;;;;5011186;28;20136;-72
2021/12/02 05:22:48;;;;;;;1.52;0.80;;;6.30;84.40;;;;;;5013771;28;20056;-73
2021/12/02 05:25:16;;;;;;;2.95;0.70;;;6.30;84.40;;;;;;5015351;28;20491;-71
2021/12/02 05:27:43;;;;;;;1.45;0.70;;;6.30;84.30;;;;;;5010727;28;20065;-72
2021/12/02 05:30:11;;;;;;;1.65;0.57;;;6.20;84.40;;;;;;5014459;28;20039;-71
2021/12/02 05:32:38;;;;;;;5.68;1.60;;;6.20;84.40;;;;;;5014938;28;20062;-70
2021/12/02 05:35:07;;;;;;;2.22;0.65;;;6.30;84.50;;;;;;5013892;28;20110;-70
2021/12/02 05:37:34;;;;;;;4.25;0.90;;;6.20;84.60;;;;;;5010463;28;20057;-70
2021/12/02 05:40:01;;;;;;;1.77;0.60;;;6.20;84.60;;;;;;5012660;28;20050;-70
2021/12/02 05:42:32;;;;;;;5.60;0.93;;;6.20;84.60;;;;;;5013682;28;20045;-72
2021/12/02 05:44:59;;;;;;;3.08;1.00;;;6.20;84.60;;;;;;5014186;28;20053;-70
2021/12/02 05:47:26;;;;;;;2.60;0.50;;;6.20;84.60;;;;;;5011905;28;20360;-69
2021/12/02 05:49:53;;;;;;;1.52;0.60;;;6.20;84.70;;;;;;5012146;28;20049;-71
2021/12/02 05:52:20;;;;;;;2.78;0.57;;;6.20;84.60;;;;;;5012429;28;20046;-71
2021/12/02 05:54:47;;;;;;;5.15;1.25;;;6.20;84.60;;;;;;5013228;28;20045;-70
2021/12/02 05:57:14;;;;;;;3.10;0.70;;;6.20;84.50;;;;;;5001719;28;20133;-71
2021/12/02 05:59:42;;;;;;;3.17;0.50;;;6.20;84.50;;;;;;5012341;28;20053;-71
2021/12/02 06:02:09;;;;;;;0.98;0.35;;;6.20;84.50;;;;;;5012317;28;20629;-71
2021/12/02 06:04:39;;;;;;;1.63;0.55;;;6.20;84.50;;;;;;5003271;28;20049;-71
2021/12/02 06:07:06;;;;;;;1.52;0.50;;;6.20;84.50;;;;;;5012585;28;20352;-69
2021/12/02 06:09:33;;;;;;;2.78;0.40;;;6.10;84.30;;;;;;5044211;28;20050;-73
2021/12/02 06:12:00;;;;;;;1.02;0.68;;;6.10;84.30;;;;;;5012812;28;20510;-69
2021/12/02 06:14:29;;;;;;;2.20;0.65;;;6.10;84.30;;;;;;4981897;28;20058;-70
2021/12/02 06:16:57;;;;;;;4.68;0.80;;;6.00;83.70;;;;;;5014033;28;20041;-73
2021/12/02 06:19:24;;;;;;;2.05;0.70;;;6.00;83.70;;;;;;5041677;28;20053;-71
2021/12/02 06:21:51;;;;;;;2.67;0.90;;;6.00;83.60;;;;;;5043931;28;20045;-73
2021/12/02 06:24:19;;;;;;;7.65;1.33;;;6.00;83.50;;;;;;5037968;28;20095;-72
2021/12/02 06:26:46;;;;;;;2.70;1.50;;;6.00;83.30;;;;;;5002227;28;20053;-72
2021/12/02 06:29:13;;;;;;;3.83;1.40;;;6.00;83.20;;;;;;5009033;28;20084;-71
2021/12/02 06:31:40;;;;;;;2.00;0.90;;;6.00;83.10;;;;;;5013863;28;20061;-71
2021/12/02 06:34:08;;;;;;;2.90;0.57;;;5.90;83.10;;;;;;5012817;28;20046;-71
2021/12/02 06:36:37;;;;;;;1.35;0.50;;;5.90;83.10;;;;;;5012547;28;20487;-71
2021/12/02 06:39:05;;;;;;;2.45;0.68;;;5.90;83.10;;;;;;5011435;28;20053;-70
2021/12/02 06:41:32;;;;;;;2.17;0.98;;;5.90;83.20;;;;;;5014510;28;20089;-72
2021/12/02 06:43:59;;;;;;;4.07;1.15;;;5.90;83.10;;;;;;5014453;28;20049;-71
2021/12/02 06:46:29;;;;;;;2.70;0.70;;;5.90;83.00;;;;;;5012705;28;20149;-72
2021/12/02 06:48:56;;;;;;;1.48;0.70;;;5.90;83.10;;;;;;5014011;28;20125;-71
2021/12/02 06:51:25;;;;;;;2.08;0.40;;;5.90;83.10;;;;;;5014553;28;20049;-71
2021/12/02 06:53:52;;;;;;;2.78;0.65;;;5.90;83.10;;;;;;5015175;28;20530;-71
2021/12/02 06:56:19;;;;;;;0.50;0.20;;;5.90;83.20;;;;;;5014191;28;20058;-70
2021/12/02 06:58:46;;;;;;;0.95;0.50;;;5.80;83.20;;;;;;4994333;28;20064;-72
2021/12/02 07:01:13;;;;;;;1.38;0.70;;;5.90;83.20;;;;;;5011658;28;20045;-71
2021/12/02 07:03:40;;;;;;;2.78;1.08;;;5.80;83.30;;;;;;5015231;28;20088;-71
2021/12/02 07:06:07;;;;;;;3.80;0.90;;;5.80;83.40;;;;;;5002482;28;20415;-72
2021/12/02 07:08:35;;;;;;;1.48;0.55;;;5.80;83.60;;;;;;5011903;28;20057;-72
2021/12/02 07:11:07;;;;;;;5.57;1.17;;;5.80;83.70;;;;;;5010479;28;20058;-70
2021/12/02 07:13:36;;;;;;;2.20;0.70;;;5.70;83.70;;;;;;5008503;28;20442;-71
2021/12/02 07:16:04;;;;;;;4.05;0.90;;;5.70;83.80;;;;;;5010177;28;20094;-71
2021/12/02 07:18:42;;;;;;;2.38;1.02;;;5.70;83.70;;;;;;5008384;28;20054;-71
2021/12/02 07:21:09;;;;;;;2.25;0.50;;;5.70;83.70;;;;;;5008843;28;20103;-71
2021/12/02 07:23:37;;;;;;;1.50;0.60;;;5.70;83.80;;;;;;5031793;28;20048;-70
2021/12/02 07:26:04;;;;;;;1.15;0.63;;;5.70;83.70;;;;;;5018327;28;20050;-72
2021/12/02 07:28:35;;;;;;;1.90;0.60;;;5.70;83.60;;;;;;5009370;28;20439;-71
2021/12/02 07:31:03;;;;;;;2.45;0.77;;;5.70;83.50;;;;;;5014494;28;21039;-70
2021/12/02 07:33:42;;;;;;;2.78;0.65;;;5.70;83.60;;;;;;5014913;28;20046;-72
2021/12/02 07:36:09;;;;;;;1.67;0.57;;;5.70;83.60;;;;;;5016780;28;20061;-71
2021/12/02 07:38:39;;;;;;;1.25;0.55;;;5.70;83.70;;;;;;5004833;28;20054;-71
2021/12/02 07:41:06;;;;;;;1.85;0.50;;;5.70;83.80;;;;;;5015254;28;20052;-71
2021/12/02 07:43:40;;;;;;;1.90;0.57;;;5.70;83.90;;;;;;4986309;28;20054;-71
2021/12/02 07:46:07;;;;;;;1.15;0.40;;;5.70;83.90;;;;;;4989817;28;20054;-70
2021/12/02 07:48:35;;;;;;;1.75;0.60;;;5.70;83.90;;;;;;4984929;28;20510;-71
2021/12/02 07:51:08;;;;;;;0.80;0.40;;;5.70;83.70;;;;;;4989479;28;20530;-70
2021/12/02 07:53:35;;;;;;;1.85;0.60;;;5.70;83.70;;;;;;4986343;28;20053;-73
2021/12/02 07:56:05;;;;;;;1.40;0.70;;;5.70;83.70;;;;;;4988156;28;20054;-72
2021/12/02 07:58:33;;;;;;;0.30;0.30;;;5.70;83.90;;;;;;4984106;28;20133;-70
2021/12/02 08:01:01;;;;;;;2.03;0.45;;;5.70;83.80;;;;;;4985127;28;20380;-71
2021/12/02 08:03:30;;;;;;;0.73;0.40;;;5.70;83.80;;;;;;4985531;28;20100;-72
2021/12/02 08:05:57;;;;;;;1.92;0.93;;;5.70;83.70;;;;;;4985908;28;20108;-72
2021/12/02 08:08:24;;;;;;;1.55;0.45;;;5.70;83.80;;;;;;4988961;28;20062;-72
2021/12/02 08:10:51;;;;;;;1.95;0.75;;;5.70;83.80;;;;;;4987852;28;20063;-72
2021/12/02 08:13:28;;;;;;;0.75;0.43;;;5.70;84.00;;;;;;4988194;28;20399;-71
2021/12/02 08:15:55;;;;;;;2.70;0.68;;;5.70;83.90;;;;;;4985462;28;20099;-71
2021/12/02 08:18:22;;;;;;;0.85;0.40;;;5.70;83.90;;;;;;4985695;28;20502;-70
2021/12/02 08:20:49;;;;;;;2.67;0.50;;;5.70;83.90;;;;;;4988025;28;20050;-70
2021/12/02 08:23:18;;;;;;;3.28;0.70;;;5.70;83.90;;;;;;4985412;28;20050;-71
2021/12/02 08:25:44;;;;;;;2.25;0.50;;;5.70;83.90;;;;;;4985014;28;20510;-71
2021/12/02 08:28:12;;;;;;;0.80;0.50;;;5.70;84.10;;;;;;4993521;28;20054;-71
2021/12/02 08:30:40;;;;;;;3.08;0.63;;;5.70;84.10;;;;;;4987231;28;20633;-73
2021/12/02 08:33:08;;;;;;;2.28;1.02;;;5.70;84.10;;;;;;4986764;28;20073;-72
2021/12/02 08:35:36;;;;;;;0.50;0.30;;;5.70;84.20;;;;;;4987054;28;20077;-72
2021/12/02 08:38:07;;;;;;;1.17;0.60;;;5.70;84.20;;;;;;4991454;28;20625;-71
2021/12/02 08:40:36;;;;;;;2.78;0.65;;;5.60;84.20;;;;;;4991236;28;20121;-72
2021/12/02 08:44:15;;;;;;;1.55;0.65;;;5.70;84.20;;;;;;5133221;27;20594;-72
2021/12/02 08:46:42;;;;;;;1.33;0.38;;;5.70;84.20;;;;;;5126418;27;20082;-70
2021/12/02 08:49:09;;;;;;;1.10;0.43;;;5.70;84.20;;;;;;5122201;28;20056;-72
2021/12/02 08:51:36;;;;;;;0.57;0.40;;;5.70;84.20;;;;;;5117799;27;20069;-71
2021/12/02 08:54:04;;;;;;;1.33;0.47;;;5.70;84.20;;;;;;5123629;27;20055;-72
2021/12/02 08:56:31;;;;;;;3.05;0.65;;;5.70;84.30;;;;;;5122925;27;20412;-71
2021/12/02 08:58:59;;;;;;;1.20;0.63;;;5.70;84.30;;;;;;5124533;27;20059;-70
2021/12/02 09:01:28;;;;;;;2.10;0.70;;;5.70;84.20;;;;;;5122448;27;20058;-67
2021/12/02 09:03:56;;;;;;;0.50;0.43;;;5.70;84.30;;;;;;5123898;27;20071;-66
2021/12/02 09:06:23;;;;;;;1.77;0.70;;;5.70;84.30;;;;;;5123662;27;20119;-67
2021/12/02 09:08:51;;;;;;;1.05;0.47;;;5.70;84.30;;;;;;5122819;27;20066;-67
2021/12/02 09:11:18;;;;;;;3.42;0.68;;;5.70;84.30;;;;;;5124504;27;20075;-68
2021/12/02 09:13:45;;;;;;;1.67;0.60;;;5.70;84.40;;;;;;5112430;27;20050;-67
2021/12/02 09:16:13;;;;;;;0.95;0.40;;;5.70;84.30;;;;;;5107971;27;20075;-69
2021/12/02 09:18:42;;;;;;;1.73;0.50;;;5.70;84.50;;;;;;5105758;27;20056;-68
2021/12/02 09:21:09;;;;;;;0.57;0.43;;;5.80;84.50;;;;;;5108666;27;20047;-68
2021/12/02 09:23:36;;;;;;;1.48;0.50;;;5.80;84.50;;;;;;5112491;27;20426;-67
2021/12/02 09:26:02;;;;;;;1.52;0.47;;;5.80;84.60;;;;;;5110740;27;20057;-67
2021/12/02 09:28:36;;;;;;;1.27;0.50;;;5.80;84.60;;;;;;5111917;27;20059;-67
2021/12/02 09:31:03;;;;;;;2.05;0.60;;;5.80;84.70;;;;;;5113755;27;20044;-68
2021/12/02 09:33:32;;;;;;;3.22;1.00;;;5.90;84.70;;;;;;5114074;27;20043;-67
2021/12/02 09:36:01;;;;;;;3.20;1.15;;;5.90;84.60;;;;;;5112373;27;20126;-67
2021/12/02 09:38:32;;;;;;;2.13;0.98;;;5.90;84.70;;;;;;5113328;27;20067;-68
2021/12/02 09:41:01;;;;;;;1.00;0.55;;;5.90;84.60;;;;;;5110979;27;20042;-68
2021/12/02 09:43:28;;;;;;;2.20;0.73;;;5.90;84.60;;;;;;5102567;28;20125;-68
2021/12/02 09:45:55;;;;;;;1.08;0.63;;;6.00;84.60;;;;;;5098944;28;20043;-67
2021/12/02 09:48:22;;;;;;;4.07;0.93;;;6.00;84.60;;;;;;5091723;28;20066;-67
2021/12/02 09:51:02;;;;;;;2.65;0.80;;;6.00;84.60;;;;;;5078044;28;20044;-66
2021/12/02 09:53:35;;;;;;;1.75;1.05;;;6.10;84.50;;;;;;5106901;28;20455;-68
2021/12/02 09:56:11;;;;;;;1.55;0.73;;;6.10;84.60;;;;;;5084840;28;20557;-68
2021/12/02 09:58:38;;;;;;;3.85;0.90;;;6.10;84.50;;;;;;5055988;28;20048;-67
2021/12/02 10:01:08;;;;;;;2.47;0.80;;;6.10;84.50;;;;;;5087069;28;20503;-69
2021/12/02 10:03:38;;;;;;;1.45;0.63;;;6.20;84.60;;;;;;5085311;28;20070;-68
2021/12/02 10:06:08;;;;;;;3.58;1.15;;;6.20;84.70;;;;;;5093595;28;20510;-68
2021/12/02 10:08:45;;;;;;;2.45;0.77;;;6.20;84.60;;;;;;5053945;28;20390;-68
2021/12/02 10:11:15;;;;;;;1.50;0.60;;;6.20;84.60;;;;;;5069910;28;20059;-68
2021/12/02 10:13:49;;;;;;;2.63;0.90;;;6.30;84.40;;;;;;5068937;28;20567;-67
2021/12/02 10:16:22;;;;;;;2.78;1.25;;;6.20;84.20;;;;;;5051482;28;20052;-68
2021/12/02 10:21:39;;;;;;;2.97;0.70;;;6.20;84.10;;;;;;5090332;28;20052;-68
2021/12/02 10:24:10;;;;;;;1.92;0.65;;;6.30;84.20;;;;;;5092211;28;20054;-66
2021/12/02 10:26:41;;;;;;;1.50;0.68;;;6.30;84.10;;;;;;5089128;28;20569;-68
2021/12/02 10:29:10;;;;;;;1.92;0.82;;;6.30;84.10;;;;;;5088359;28;20122;-69
2021/12/02 10:31:38;;;;;;;4.00;1.20;;;6.30;84.10;;;;;;5082836;28;20051;-68
2021/12/02 10:34:07;;;;;;;3.65;1.40;;;6.30;84.10;;;;;;5076313;28;20055;-68
2021/12/02 10:36:36;;;;;;;6.07;2.45;;;6.40;84.00;;;;;;5053374;28;20056;-69
2021/12/02 10:39:11;;;;;;;3.58;1.48;;;6.40;83.90;;;;;;5067846;28;20055;-67
2021/12/02 10:41:42;;;;;;;5.00;2.05;;;6.30;83.90;;;;;;5067587;28;20490;-67
2021/12/02 10:44:23;;;;;;;5.72;1.67;;;6.30;83.90;;;;;;5101865;27;20786;-67
2021/12/02 10:47:00;;;;;;;3.75;1.58;;;6.30;83.80;;;;;;5117034;27;20095;-68
2021/12/02 10:49:33;;;;;;;5.15;1.65;;;6.40;83.90;;;;;;5118872;27;20145;-68
2021/12/02 10:52:03;;;;;;;5.30;2.05;;;6.30;83.90;;;;;;5117849;27;20477;-67
2021/12/02 10:54:34;;;;;;;5.68;1.40;;;6.30;83.90;;;;;;5118368;27;20500;-68
2021/12/02 10:57:08;;;;;;;6.10;2.25;;;6.40;83.90;;;;;;5117210;27;20292;-68
2021/12/02 10:59:42;;;;;;;4.72;1.48;;;6.40;83.70;;;;;;5119131;27;20058;-69
2021/12/02 11:02:17;;;;;;;6.63;1.77;;;6.30;83.40;;;;;;5109788;27;20047;-68
2021/12/02 11:04:46;;;;;;;3.92;1.27;;;6.30;83.40;;;;;;5114079;27;20362;-67
2021/12/02 11:07:20;;;;;;;2.33;1.20;;;6.30;83.20;;;;;;5118846;27;20074;-68
2021/12/02 11:09:51;;;;;;;3.03;1.20;;;6.30;83.20;;;;;;5116613;27;20063;-68
2021/12/02 11:12:21;;;;;;;3.38;1.02;;;6.30;83.20;;;;;;5109194;27;20073;-67
2021/12/02 11:15:05;;;;;;;2.85;1.27;;;6.30;83.30;;;;;;5119106;27;20123;-68
2021/12/02 11:17:35;;;;;;;1.77;0.80;;;6.20;82.60;;;;;;5117746;27;20126;-68
2021/12/02 11:20:05;;;;;;;1.65;0.93;;;6.20;82.40;;;;;;5116086;27;20078;-68
2021/12/02 11:22:32;;;;;;;4.20;1.20;;;6.20;82.40;;;;;;5106537;27;20059;-67
2021/12/02 11:25:01;;;;;;;5.10;1.05;;;6.10;82.70;;;;;;5118034;27;20055;-68
2021/12/02 11:27:36;;;;;;;2.30;0.80;;;6.20;82.80;;;;;;5115493;27;20043;-68
2021/12/02 11:30:08;;;;;;;2.90;0.93;;;6.20;82.60;;;;;;5117040;27;20517;-68
2021/12/02 11:32:39;;;;;;;2.85;1.40;;;6.10;82.40;;;;;;5118741;27;20059;-68
2021/12/02 11:35:13;;;;;;;1.85;0.82;;;6.10;82.40;;;;;;5118077;27;20507;-67
2021/12/02 11:37:42;;;;;;;2.25;1.02;;;6.10;82.40;;;;;;5118639;27;20046;-67
2021/12/02 11:40:13;;;;;;;0.75;0.45;;;6.10;82.40;;;;;;5118546;27;20139;-66
2021/12/02 11:42:41;;;;;;;1.38;0.45;;;6.10;82.20;;;;;;5118110;27;20048;-68
2021/12/02 11:45:11;;;;;;;0.82;0.47;;;6.10;81.80;;;;;;5118825;27;20047;-67
2021/12/02 11:47:39;;;;;;;1.05;0.52;;;6.10;81.60;;;;;;5117292;27;20043;-68
2021/12/02 11:50:09;;;;;;;1.15;0.50;;;6.00;81.10;;;;;;5118216;27;20053;-68
2021/12/02 11:52:38;;;;;;;2.63;0.70;;;6.00;80.90;;;;;;5100694;27;20682;-67
2021/12/02 11:55:09;;;;;;;2.85;0.57;;;5.90;80.80;;;;;;5115554;27;20044;-67
2021/12/02 11:57:44;;;;;;;1.38;0.40;;;6.00;80.90;;;;;;5111775;27;20050;-68
2021/12/02 12:00:14;;;;;;;3.28;0.68;;;6.00;80.90;;;;;;5100906;27;20047;-68
2021/12/02 12:02:48;;;;;;;2.45;0.75;;;6.00;80.80;;;;;;5118408;27;20039;-67
2021/12/02 12:05:16;;;;;;;1.02;0.70;;;6.00;80.80;;;;;;5112601;27;20477;-68
2021/12/02 12:07:47;;;;;;;1.15;0.60;;;6.00;80.70;;;;;;5118332;27;20046;-67
2021/12/02 12:10:21;;;;;;;1.77;0.77;;;6.00;80.60;;;;;;5116444;27;20043;-69
2021/12/02 12:12:50;;;;;;;1.25;0.65;;;6.00;80.70;;;;;;5113093;27;20135;-70
2021/12/02 12:15:37;;;;;;;1.10;0.50;;;6.10;80.70;;;;;;5114937;27;20077;-68
2021/12/02 12:18:05;;;;;;;2.28;0.65;;;6.10;80.40;;;;;;5115486;27;20134;-67
2021/12/02 12:21:02;;;;;;;1.40;0.55;;;6.10;79.80;;;;;;5108804;27;20039;-66
2021/12/02 12:23:40;;;;;;;2.25;0.68;;;6.20;79.80;;;;;;5109534;27;20494;-69
2021/12/02 12:26:12;;;;;;;1.60;0.63;;;6.20;79.60;;;;;;5104222;27;20100;-69
2021/12/02 12:29:30;;;;;;;1.25;0.40;;;6.30;79.50;;;;;;5118966;27;20054;-68
2021/12/02 12:35:24;;;;;;;0.80;0.60;;;6.30;79.20;;;;;;5111910;27;20075;-68
2021/12/02 12:40:45;;;;;;;1.60;0.75;;;6.30;78.80;;;;;;5110924;27;20051;-68
2021/12/02 12:43:38;;;;;;;1.23;0.70;;;6.30;79.00;;;;;;5113523;27;20050;-68
2021/12/02 12:46:23;;;;;;;1.45;0.52;;;6.30;79.10;;;;;;5114749;27;20059;-67
2021/12/02 12:48:53;;;;;;;1.65;0.68;;;6.30;79.10;;;;;;5112864;27;20047;-69
2021/12/02 12:51:35;;;;;;;1.45;0.50;;;6.30;78.90;;;;;;5107947;27;20049;-67
2021/12/02 12:54:05;;;;;;;1.02;0.50;;;6.20;78.90;;;;;;5113633;27;20092;-69
2021/12/02 12:56:34;;;;;;;;;;;6.20;78.70;;;;;;5115033;27;20054;-68
2021/12/02 12:59:04;;;;;;;0.60;0.35;;;6.30;78.70;;;;;;5116749;28;20006;-68
2021/12/02 13:01:32;;;;;;;1.33;0.63;;;6.20;78.60;;;;;;5115426;27;20122;-67
2021/12/02 13:04:19;;;;;;;1.83;0.63;;;6.20;78.50;;;;;;5116289;27;20498;-67
2021/12/02 13:07:00;;;;;;;1.40;0.52;;;6.20;78.20;;;;;;5109783;27;20040;-68
2021/12/02 13:09:53;;;;;;;2.28;0.90;;;6.20;78.40;;;;;;5111768;28;20035;-67
2021/12/02 13:12:26;;;;;;;3.97;0.60;;;6.20;78.80;;;;;;5115295;27;20132;-67
2021/12/02 13:14:54;;;;;;;2.75;0.52;;;6.20;78.90;;;;;;5117291;27;20058;-68
2021/12/02 13:17:43;;;;;;;1.38;0.57;;;6.20;79.00;;;;;;5100124;27;20406;-67
2021/12/02 13:20:37;;;;;;;1.52;0.73;;;6.20;79.10;;;;;;5117063;28;20565;-67
2021/12/02 13:23:36;;;;;;;1.15;0.40;;;6.20;78.90;;;;;;5114907;27;20050;-68
2021/12/02 13:26:14;;;;;;;2.42;0.73;;;6.10;79.00;;;;;;5111519;27;20047;-68